sensor_id;sensor_type;location;lat;lon;timestamp;temperature;humidity
70166;SHT30;57541;47.408;18.822;2023-07-02T00:00:19;19.83;97.57
70166;SHT30;57541;47.408;18.822;2023-07-02T00:00:51;19.84;97.45
70166;SHT30;57541;47.408;18.822;2023-07-02T00:01:23;19.88;97.35
70166;SHT30;57541;47.408;18.822;2023-07-02T00:01:55;19.88;97.40
70166;SHT30;57541;47.408;18.822;2023-07-02T00:02:27;19.88;97.44
70166;SHT30;57541;47.408;18.822;2023-07-02T00:03:00;19.88;97.41
70166;SHT30;57541;47.408;18.822;2023-07-02T00:03:32;19.90;97.31
70166;SHT30;57541;47.408;18.822;2023-07-02T00:04:04;19.93;97.28
70166;SHT30;57541;47.408;18.822;2023-07-02T00:04:35;19.93;97.25
70166;SHT30;57541;47.408;18.822;2023-07-02T00:05:07;19.91;97.32
70166;SHT30;57541;47.408;18.822;2023-07-02T00:05:39;19.91;97.27
70166;SHT30;57541;47.408;18.822;2023-07-02T00:06:11;19.93;97.25
70166;SHT30;57541;47.408;18.822;2023-07-02T00:06:43;19.94;97.33
70166;SHT30;57541;47.408;18.822;2023-07-02T00:07:15;19.94;97.57
70166;SHT30;57541;47.408;18.822;2023-07-02T00:07:46;19.94;97.40
70166;SHT30;57541;47.408;18.822;2023-07-02T00:08:18;19.95;97.43
70166;SHT30;57541;47.408;18.822;2023-07-02T00:08:50;19.95;97.23
70166;SHT30;57541;47.408;18.822;2023-07-02T00:09:21;19.94;97.08
70166;SHT30;57541;47.408;18.822;2023-07-02T00:09:53;19.97;97.20
70166;SHT30;57541;47.408;18.822;2023-07-02T00:10:25;19.91;97.09
70166;SHT30;57541;47.408;18.822;2023-07-02T00:10:57;19.90;97.07
70166;SHT30;57541;47.408;18.822;2023-07-02T00:11:28;19.91;96.97
70166;SHT30;57541;47.408;18.822;2023-07-02T00:12:00;19.87;97.39
70166;SHT30;57541;47.408;18.822;2023-07-02T00:12:32;19.87;97.37
70166;SHT30;57541;47.408;18.822;2023-07-02T00:13:03;19.90;97.43
70166;SHT30;57541;47.408;18.822;2023-07-02T00:13:35;19.91;97.33
70166;SHT30;57541;47.408;18.822;2023-07-02T00:14:07;19.83;97.59
70166;SHT30;57541;47.408;18.822;2023-07-02T00:14:39;19.87;97.64
70166;SHT30;57541;47.408;18.822;2023-07-02T00:15:11;19.81;97.77
70166;SHT30;57541;47.408;18.822;2023-07-02T00:15:43;19.83;97.65
70166;SHT30;57541;47.408;18.822;2023-07-02T00:16:15;19.83;97.57
70166;SHT30;57541;47.408;18.822;2023-07-02T00:16:46;19.80;97.60
70166;SHT30;57541;47.408;18.822;2023-07-02T00:17:19;19.83;97.47
70166;SHT30;57541;47.408;18.822;2023-07-02T00:17:50;19.80;97.60
70166;SHT30;57541;47.408;18.822;2023-07-02T00:18:22;19.78;97.78
70166;SHT30;57541;47.408;18.822;2023-07-02T00:18:54;19.81;97.74
70166;SHT30;57541;47.408;18.822;2023-07-02T00:19:26;19.78;97.64
70166;SHT30;57541;47.408;18.822;2023-07-02T00:19:57;19.78;97.57
70166;SHT30;57541;47.408;18.822;2023-07-02T00:20:34;19.78;97.74
70166;SHT30;57541;47.408;18.822;2023-07-02T00:21:09;19.77;97.78
70166;SHT30;57541;47.408;18.822;2023-07-02T00:21:44;19.70;98.06
70166;SHT30;57541;47.408;18.822;2023-07-02T00:22:16;19.75;97.97
70166;SHT30;57541;47.408;18.822;2023-07-02T00:22:49;19.74;97.94
70166;SHT30;57541;47.408;18.822;2023-07-02T00:23:21;19.73;97.92
70166;SHT30;57541;47.408;18.822;2023-07-02T00:23:52;19.71;97.97
70166;SHT30;57541;47.408;18.822;2023-07-02T00:24:24;19.74;98.03
70166;SHT30;57541;47.408;18.822;2023-07-02T00:24:56;19.74;97.98
70166;SHT30;57541;47.408;18.822;2023-07-02T00:25:28;19.71;97.96
70166;SHT30;57541;47.408;18.822;2023-07-02T00:25:59;19.69;98.04
70166;SHT30;57541;47.408;18.822;2023-07-02T00:26:31;19.63;98.26
70166;SHT30;57541;47.408;18.822;2023-07-02T00:27:03;19.66;98.11
70166;SHT30;57541;47.408;18.822;2023-07-02T00:27:35;19.66;98.36
70166;SHT30;57541;47.408;18.822;2023-07-02T00:28:07;19.64;98.36
70166;SHT30;57541;47.408;18.822;2023-07-02T00:28:38;19.64;98.30
70166;SHT30;57541;47.408;18.822;2023-07-02T00:29:10;19.62;98.26
70166;SHT30;57541;47.408;18.822;2023-07-02T00:29:42;19.62;98.51
70166;SHT30;57541;47.408;18.822;2023-07-02T00:30:14;19.59;98.45
70166;SHT30;57541;47.408;18.822;2023-07-02T00:30:46;19.62;98.33
70166;SHT30;57541;47.408;18.822;2023-07-02T00:31:18;19.54;98.62
70166;SHT30;57541;47.408;18.822;2023-07-02T00:31:50;19.57;98.45
70166;SHT30;57541;47.408;18.822;2023-07-02T00:32:22;19.53;98.53
70166;SHT30;57541;47.408;18.822;2023-07-02T00:32:53;19.49;98.80
70166;SHT30;57541;47.408;18.822;2023-07-02T00:33:25;19.54;98.56
70166;SHT30;57541;47.408;18.822;2023-07-02T00:33:57;19.52;98.57
70166;SHT30;57541;47.408;18.822;2023-07-02T00:34:29;19.54;98.55
70166;SHT30;57541;47.408;18.822;2023-07-02T00:35:00;19.57;98.35
70166;SHT30;57541;47.408;18.822;2023-07-02T00:35:32;19.59;98.28
70166;SHT30;57541;47.408;18.822;2023-07-02T00:36:04;19.60;98.18
70166;SHT30;57541;47.408;18.822;2023-07-02T00:36:36;19.60;98.18
70166;SHT30;57541;47.408;18.822;2023-07-02T00:37:07;19.54;98.42
70166;SHT30;57541;47.408;18.822;2023-07-02T00:37:39;19.59;98.30
70166;SHT30;57541;47.408;18.822;2023-07-02T00:38:11;19.63;98.23
70166;SHT30;57541;47.408;18.822;2023-07-02T00:38:47;19.64;98.12
70166;SHT30;57541;47.408;18.822;2023-07-02T00:39:19;19.67;98.10
70166;SHT30;57541;47.408;18.822;2023-07-02T00:39:51;19.64;98.09
70166;SHT30;57541;47.408;18.822;2023-07-02T00:40:23;19.62;98.11
70166;SHT30;57541;47.408;18.822;2023-07-02T00:40:55;19.64;98.11
70166;SHT30;57541;47.408;18.822;2023-07-02T00:41:27;19.63;98.17
70166;SHT30;57541;47.408;18.822;2023-07-02T00:42:02;19.64;98.05
70166;SHT30;57541;47.408;18.822;2023-07-02T00:42:36;19.62;97.97
70166;SHT30;57541;47.408;18.822;2023-07-02T00:43:08;19.60;98.01
70166;SHT30;57541;47.408;18.822;2023-07-02T00:43:44;19.62;98.06
70166;SHT30;57541;47.408;18.822;2023-07-02T00:44:16;19.59;98.34
70166;SHT30;57541;47.408;18.822;2023-07-02T00:44:49;19.57;98.23
70166;SHT30;57541;47.408;18.822;2023-07-02T00:45:20;19.53;98.51
70166;SHT30;57541;47.408;18.822;2023-07-02T00:45:52;19.56;98.35
70166;SHT30;57541;47.408;18.822;2023-07-02T00:46:24;19.54;98.29
70166;SHT30;57541;47.408;18.822;2023-07-02T00:46:57;19.53;98.41
70166;SHT30;57541;47.408;18.822;2023-07-02T00:47:32;19.54;98.45
70166;SHT30;57541;47.408;18.822;2023-07-02T00:48:06;19.54;98.46
70166;SHT30;57541;47.408;18.822;2023-07-02T00:48:38;19.56;98.52
70166;SHT30;57541;47.408;18.822;2023-07-02T00:49:11;19.54;98.55
70166;SHT30;57541;47.408;18.822;2023-07-02T00:49:43;19.54;98.50
70166;SHT30;57541;47.408;18.822;2023-07-02T00:50:15;19.57;98.47
70166;SHT30;57541;47.408;18.822;2023-07-02T00:50:47;19.56;98.43
70166;SHT30;57541;47.408;18.822;2023-07-02T00:51:24;19.56;98.44
70166;SHT30;57541;47.408;18.822;2023-07-02T00:51:56;19.56;98.50
70166;SHT30;57541;47.408;18.822;2023-07-02T00:52:28;19.57;98.52
70166;SHT30;57541;47.408;18.822;2023-07-02T00:52:59;19.50;98.85
70166;SHT30;57541;47.408;18.822;2023-07-02T00:53:31;19.53;98.68
70166;SHT30;57541;47.408;18.822;2023-07-02T00:54:04;19.50;98.66
70166;SHT30;57541;47.408;18.822;2023-07-02T00:54:36;19.53;98.73
70166;SHT30;57541;47.408;18.822;2023-07-02T00:55:08;19.49;98.64
70166;SHT30;57541;47.408;18.822;2023-07-02T00:55:40;19.50;98.70
70166;SHT30;57541;47.408;18.822;2023-07-02T00:56:12;19.52;98.60
70166;SHT30;57541;47.408;18.822;2023-07-02T00:56:44;19.50;98.70
70166;SHT30;57541;47.408;18.822;2023-07-02T00:57:18;19.53;98.60
70166;SHT30;57541;47.408;18.822;2023-07-02T00:57:50;19.53;98.52
70166;SHT30;57541;47.408;18.822;2023-07-02T00:58:21;19.54;98.44
70166;SHT30;57541;47.408;18.822;2023-07-02T00:58:54;19.53;98.60
70166;SHT30;57541;47.408;18.822;2023-07-02T00:59:29;19.53;98.54
70166;SHT30;57541;47.408;18.822;2023-07-02T01:00:01;19.46;98.44
70166;SHT30;57541;47.408;18.822;2023-07-02T01:00:33;19.50;98.37
70166;SHT30;57541;47.408;18.822;2023-07-02T01:01:05;19.53;98.30
70166;SHT30;57541;47.408;18.822;2023-07-02T01:01:37;19.49;98.43
70166;SHT30;57541;47.408;18.822;2023-07-02T01:02:09;19.52;98.40
70166;SHT30;57541;47.408;18.822;2023-07-02T01:02:42;19.50;98.33
70166;SHT30;57541;47.408;18.822;2023-07-02T01:03:15;19.49;98.30
70166;SHT30;57541;47.408;18.822;2023-07-02T01:03:58;19.47;98.24
70166;SHT30;57541;47.408;18.822;2023-07-02T01:04:33;19.47;98.34
70166;SHT30;57541;47.408;18.822;2023-07-02T01:05:05;19.45;98.50
70166;SHT30;57541;47.408;18.822;2023-07-02T01:05:37;19.43;98.60
70166;SHT30;57541;47.408;18.822;2023-07-02T01:06:08;19.45;98.55
70166;SHT30;57541;47.408;18.822;2023-07-02T01:06:40;19.46;98.57
70166;SHT30;57541;47.408;18.822;2023-07-02T01:07:13;19.43;98.55
70166;SHT30;57541;47.408;18.822;2023-07-02T01:07:44;19.45;98.65
70166;SHT30;57541;47.408;18.822;2023-07-02T01:08:16;19.43;98.42
70166;SHT30;57541;47.408;18.822;2023-07-02T01:08:48;19.45;98.23
70166;SHT30;57541;47.408;18.822;2023-07-02T01:09:20;19.42;98.16
70166;SHT30;57541;47.408;18.822;2023-07-02T01:09:51;19.43;98.18
70166;SHT30;57541;47.408;18.822;2023-07-02T01:10:23;19.42;98.10
70166;SHT30;57541;47.408;18.822;2023-07-02T01:10:55;19.43;98.05
70166;SHT30;57541;47.408;18.822;2023-07-02T01:11:29;19.45;98.08
70166;SHT30;57541;47.408;18.822;2023-07-02T01:12:07;19.46;98.10
70166;SHT30;57541;47.408;18.822;2023-07-02T01:12:40;19.45;98.10
70166;SHT30;57541;47.408;18.822;2023-07-02T01:13:16;19.46;98.11
70166;SHT30;57541;47.408;18.822;2023-07-02T01:13:51;19.47;98.13
70166;SHT30;57541;47.408;18.822;2023-07-02T01:14:25;19.43;98.19
70166;SHT30;57541;47.408;18.822;2023-07-02T01:15:00;19.43;98.27
70166;SHT30;57541;47.408;18.822;2023-07-02T01:15:34;19.45;98.25
70166;SHT30;57541;47.408;18.822;2023-07-02T01:16:06;19.40;98.31
70166;SHT30;57541;47.408;18.822;2023-07-02T01:16:41;19.42;98.35
70166;SHT30;57541;47.408;18.822;2023-07-02T01:17:15;19.40;98.40
70166;SHT30;57541;47.408;18.822;2023-07-02T01:17:51;19.33;98.70
70166;SHT30;57541;47.408;18.822;2023-07-02T01:18:24;19.37;98.65
70166;SHT30;57541;47.408;18.822;2023-07-02T01:18:56;19.37;98.61
70166;SHT30;57541;47.408;18.822;2023-07-02T01:19:45;19.37;98.64
70166;SHT30;57541;47.408;18.822;2023-07-02T01:20:24;19.39;98.66
70166;SHT30;57541;47.408;18.822;2023-07-02T01:20:56;19.37;98.74
70166;SHT30;57541;47.408;18.822;2023-07-02T01:21:30;19.36;98.77
70166;SHT30;57541;47.408;18.822;2023-07-02T01:22:02;19.36;98.74
70166;SHT30;57541;47.408;18.822;2023-07-02T01:22:34;19.33;98.92
70166;SHT30;57541;47.408;18.822;2023-07-02T01:23:05;19.37;99.01
70166;SHT30;57541;47.408;18.822;2023-07-02T01:23:37;19.32;99.10
70166;SHT30;57541;47.408;18.822;2023-07-02T01:24:09;19.33;99.13
70166;SHT30;57541;47.408;18.822;2023-07-02T01:24:41;19.34;99.19
70166;SHT30;57541;47.408;18.822;2023-07-02T01:25:14;19.37;99.19
70166;SHT30;57541;47.408;18.822;2023-07-02T01:25:46;19.37;99.16
70166;SHT30;57541;47.408;18.822;2023-07-02T01:26:19;19.40;99.16
70166;SHT30;57541;47.408;18.822;2023-07-02T01:26:51;19.42;99.22
70166;SHT30;57541;47.408;18.822;2023-07-02T01:27:22;19.45;99.22
70166;SHT30;57541;47.408;18.822;2023-07-02T01:27:54;19.42;99.24
70166;SHT30;57541;47.408;18.822;2023-07-02T01:28:34;19.42;99.25
70166;SHT30;57541;47.408;18.822;2023-07-02T01:29:17;19.37;99.47
70166;SHT30;57541;47.408;18.822;2023-07-02T01:29:52;19.37;99.58
70166;SHT30;57541;47.408;18.822;2023-07-02T01:30:24;19.37;99.61
70166;SHT30;57541;47.408;18.822;2023-07-02T01:30:57;19.42;99.42
70166;SHT30;57541;47.408;18.822;2023-07-02T01:31:29;19.37;99.57
70166;SHT30;57541;47.408;18.822;2023-07-02T01:32:00;19.40;99.58
70166;SHT30;57541;47.408;18.822;2023-07-02T01:32:32;19.39;99.55
70166;SHT30;57541;47.408;18.822;2023-07-02T01:33:04;19.34;99.55
70166;SHT30;57541;47.408;18.822;2023-07-02T01:33:36;19.36;99.62
70166;SHT30;57541;47.408;18.822;2023-07-02T01:34:07;19.33;99.76
70166;SHT30;57541;47.408;18.822;2023-07-02T01:34:40;19.36;99.63
70166;SHT30;57541;47.408;18.822;2023-07-02T01:35:12;19.37;99.61
70166;SHT30;57541;47.408;18.822;2023-07-02T01:35:44;19.39;99.56
70166;SHT30;57541;47.408;18.822;2023-07-02T01:36:16;19.36;99.47
70166;SHT30;57541;47.408;18.822;2023-07-02T01:36:47;19.42;99.35
70166;SHT30;57541;47.408;18.822;2023-07-02T01:37:19;19.40;99.50
70166;SHT30;57541;47.408;18.822;2023-07-02T01:37:51;19.42;99.44
70166;SHT30;57541;47.408;18.822;2023-07-02T01:38:22;19.39;99.39
70166;SHT30;57541;47.408;18.822;2023-07-02T01:38:54;19.40;99.28
70166;SHT30;57541;47.408;18.822;2023-07-02T01:39:26;19.42;99.18
70166;SHT30;57541;47.408;18.822;2023-07-02T01:39:57;19.39;99.28
70166;SHT30;57541;47.408;18.822;2023-07-02T01:40:29;19.42;99.28
70166;SHT30;57541;47.408;18.822;2023-07-02T01:41:01;19.37;99.08
70166;SHT30;57541;47.408;18.822;2023-07-02T01:41:50;19.36;98.87
70166;SHT30;57541;47.408;18.822;2023-07-02T01:42:22;19.39;98.86
70166;SHT30;57541;47.408;18.822;2023-07-02T01:42:54;19.39;98.60
70166;SHT30;57541;47.408;18.822;2023-07-02T01:43:25;19.36;98.61
70166;SHT30;57541;47.408;18.822;2023-07-02T01:43:57;19.37;98.73
70166;SHT30;57541;47.408;18.822;2023-07-02T01:44:29;19.42;98.24
70166;SHT30;57541;47.408;18.822;2023-07-02T01:45:00;19.42;97.87
70166;SHT30;57541;47.408;18.822;2023-07-02T01:45:32;19.40;97.81
70166;SHT30;57541;47.408;18.822;2023-07-02T01:46:04;19.40;97.83
70166;SHT30;57541;47.408;18.822;2023-07-02T01:46:36;19.43;97.83
70166;SHT30;57541;47.408;18.822;2023-07-02T01:47:07;19.45;97.77
70166;SHT30;57541;47.408;18.822;2023-07-02T01:47:39;19.45;97.72
70166;SHT30;57541;47.408;18.822;2023-07-02T01:48:11;19.46;97.79
70166;SHT30;57541;47.408;18.822;2023-07-02T01:48:42;19.43;97.69
70166;SHT30;57541;47.408;18.822;2023-07-02T01:49:15;19.47;97.75
70166;SHT30;57541;47.408;18.822;2023-07-02T01:49:47;19.45;97.75
70166;SHT30;57541;47.408;18.822;2023-07-02T01:50:19;19.46;97.88
70166;SHT30;57541;47.408;18.822;2023-07-02T01:50:50;19.47;97.84
70166;SHT30;57541;47.408;18.822;2023-07-02T01:51:22;19.47;97.93
70166;SHT30;57541;47.408;18.822;2023-07-02T01:51:55;19.50;97.92
70166;SHT30;57541;47.408;18.822;2023-07-02T01:52:27;19.53;97.95
70166;SHT30;57541;47.408;18.822;2023-07-02T01:52:59;19.52;97.92
70166;SHT30;57541;47.408;18.822;2023-07-02T01:53:31;19.52;97.89
70166;SHT30;57541;47.408;18.822;2023-07-02T01:54:02;19.53;97.97
70166;SHT30;57541;47.408;18.822;2023-07-02T01:54:35;19.56;98.12
70166;SHT30;57541;47.408;18.822;2023-07-02T01:55:07;19.52;98.03
70166;SHT30;57541;47.408;18.822;2023-07-02T01:55:39;19.49;98.03
70166;SHT30;57541;47.408;18.822;2023-07-02T01:56:10;19.50;98.27
70166;SHT30;57541;47.408;18.822;2023-07-02T01:56:42;19.52;98.07
70166;SHT30;57541;47.408;18.822;2023-07-02T01:57:14;19.49;97.98
70166;SHT30;57541;47.408;18.822;2023-07-02T01:57:46;19.49;98.04
70166;SHT30;57541;47.408;18.822;2023-07-02T01:58:17;19.45;98.07
70166;SHT30;57541;47.408;18.822;2023-07-02T01:58:49;19.45;97.98
70166;SHT30;57541;47.408;18.822;2023-07-02T01:59:21;19.45;98.06
70166;SHT30;57541;47.408;18.822;2023-07-02T01:59:52;19.40;98.00
70166;SHT30;57541;47.408;18.822;2023-07-02T02:00:24;19.37;97.87
70166;SHT30;57541;47.408;18.822;2023-07-02T02:00:56;19.39;98.05
70166;SHT30;57541;47.408;18.822;2023-07-02T02:01:28;19.37;97.93
70166;SHT30;57541;47.408;18.822;2023-07-02T02:02:00;19.42;97.82
70166;SHT30;57541;47.408;18.822;2023-07-02T02:02:32;19.43;97.70
70166;SHT30;57541;47.408;18.822;2023-07-02T02:03:04;19.40;97.66
70166;SHT30;57541;47.408;18.822;2023-07-02T02:03:36;19.36;97.68
70166;SHT30;57541;47.408;18.822;2023-07-02T02:04:08;19.36;97.65
70166;SHT30;57541;47.408;18.822;2023-07-02T02:04:40;19.39;97.43
70166;SHT30;57541;47.408;18.822;2023-07-02T02:05:12;19.37;97.28
70166;SHT30;57541;47.408;18.822;2023-07-02T02:05:44;19.42;97.31
70166;SHT30;57541;47.408;18.822;2023-07-02T02:06:16;19.42;97.24
70166;SHT30;57541;47.408;18.822;2023-07-02T02:06:48;19.40;97.26
70166;SHT30;57541;47.408;18.822;2023-07-02T02:07:19;19.40;97.21
70166;SHT30;57541;47.408;18.822;2023-07-02T02:07:51;19.40;97.18
70166;SHT30;57541;47.408;18.822;2023-07-02T02:08:23;19.42;97.15
70166;SHT30;57541;47.408;18.822;2023-07-02T02:08:54;19.43;97.08
70166;SHT30;57541;47.408;18.822;2023-07-02T02:09:26;19.36;97.07
70166;SHT30;57541;47.408;18.822;2023-07-02T02:09:59;19.39;97.06
70166;SHT30;57541;47.408;18.822;2023-07-02T02:10:31;19.37;97.09
70166;SHT30;57541;47.408;18.822;2023-07-02T02:11:03;19.43;97.01
70166;SHT30;57541;47.408;18.822;2023-07-02T02:11:39;19.42;97.03
70166;SHT30;57541;47.408;18.822;2023-07-02T02:12:11;19.39;97.16
70166;SHT30;57541;47.408;18.822;2023-07-02T02:12:45;19.43;97.19
70166;SHT30;57541;47.408;18.822;2023-07-02T02:13:17;19.42;97.11
70166;SHT30;57541;47.408;18.822;2023-07-02T02:13:49;19.43;97.01
70166;SHT30;57541;47.408;18.822;2023-07-02T02:14:21;19.42;96.93
70166;SHT30;57541;47.408;18.822;2023-07-02T02:14:53;19.43;96.90
70166;SHT30;57541;47.408;18.822;2023-07-02T02:15:25;19.47;96.80
70166;SHT30;57541;47.408;18.822;2023-07-02T02:15:57;19.42;96.84
70166;SHT30;57541;47.408;18.822;2023-07-02T02:16:29;19.40;96.83
70166;SHT30;57541;47.408;18.822;2023-07-02T02:17:01;19.40;96.84
70166;SHT30;57541;47.408;18.822;2023-07-02T02:17:33;19.37;96.86
70166;SHT30;57541;47.408;18.822;2023-07-02T02:18:07;19.37;97.04
70166;SHT30;57541;47.408;18.822;2023-07-02T02:18:38;19.36;97.09
70166;SHT30;57541;47.408;18.822;2023-07-02T02:19:10;19.34;97.05
70166;SHT30;57541;47.408;18.822;2023-07-02T02:19:42;19.37;97.21
70166;SHT30;57541;47.408;18.822;2023-07-02T02:20:14;19.36;97.16
70166;SHT30;57541;47.408;18.822;2023-07-02T02:20:46;19.39;96.86
70166;SHT30;57541;47.408;18.822;2023-07-02T02:21:22;19.34;96.80
70166;SHT30;57541;47.408;18.822;2023-07-02T02:21:54;19.34;96.77
70166;SHT30;57541;47.408;18.822;2023-07-02T02:22:25;19.34;96.83
70166;SHT30;57541;47.408;18.822;2023-07-02T02:22:57;19.33;96.77
70166;SHT30;57541;47.408;18.822;2023-07-02T02:23:29;19.37;96.71
70166;SHT30;57541;47.408;18.822;2023-07-02T02:24:00;19.36;96.81
70166;SHT30;57541;47.408;18.822;2023-07-02T02:24:32;19.34;96.76
70166;SHT30;57541;47.408;18.822;2023-07-02T02:25:04;19.36;96.61
70166;SHT30;57541;47.408;18.822;2023-07-02T02:25:36;19.30;96.59
70166;SHT30;57541;47.408;18.822;2023-07-02T02:26:07;19.33;96.61
70166;SHT30;57541;47.408;18.822;2023-07-02T02:26:39;19.30;96.55
70166;SHT30;57541;47.408;18.822;2023-07-02T02:27:11;19.26;96.46
70166;SHT30;57541;47.408;18.822;2023-07-02T02:27:42;19.27;96.52
70166;SHT30;57541;47.408;18.822;2023-07-02T02:28:15;19.25;96.44
70166;SHT30;57541;47.408;18.822;2023-07-02T02:28:46;19.25;96.46
70166;SHT30;57541;47.408;18.822;2023-07-02T02:29:18;19.26;96.51
70166;SHT30;57541;47.408;18.822;2023-07-02T02:29:50;19.26;96.60
70166;SHT30;57541;47.408;18.822;2023-07-02T02:30:22;19.26;96.50
70166;SHT30;57541;47.408;18.822;2023-07-02T02:30:53;19.26;96.37
70166;SHT30;57541;47.408;18.822;2023-07-02T02:31:25;19.27;96.28
70166;SHT30;57541;47.408;18.822;2023-07-02T02:31:57;19.27;96.38
70166;SHT30;57541;47.408;18.822;2023-07-02T02:32:29;19.26;96.53
70166;SHT30;57541;47.408;18.822;2023-07-02T02:33:00;19.27;96.42
70166;SHT30;57541;47.408;18.822;2023-07-02T02:33:33;19.27;96.20
70166;SHT30;57541;47.408;18.822;2023-07-02T02:34:06;19.29;96.16
70166;SHT30;57541;47.408;18.822;2023-07-02T02:34:38;19.27;96.16
70166;SHT30;57541;47.408;18.822;2023-07-02T02:35:10;19.27;96.18
70166;SHT30;57541;47.408;18.822;2023-07-02T02:35:41;19.30;95.96
70166;SHT30;57541;47.408;18.822;2023-07-02T02:36:13;19.29;95.88
70166;SHT30;57541;47.408;18.822;2023-07-02T02:36:45;19.30;95.94
70166;SHT30;57541;47.408;18.822;2023-07-02T02:37:18;19.29;95.88
70166;SHT30;57541;47.408;18.822;2023-07-02T02:37:50;19.27;95.85
70166;SHT30;57541;47.408;18.822;2023-07-02T02:38:22;19.30;95.81
70166;SHT30;57541;47.408;18.822;2023-07-02T02:38:53;19.32;95.88
70166;SHT30;57541;47.408;18.822;2023-07-02T02:39:25;19.32;95.86
70166;SHT30;57541;47.408;18.822;2023-07-02T02:39:57;19.30;95.71
70166;SHT30;57541;47.408;18.822;2023-07-02T02:40:29;19.32;95.60
70166;SHT30;57541;47.408;18.822;2023-07-02T02:41:01;19.33;95.63
70166;SHT30;57541;47.408;18.822;2023-07-02T02:41:33;19.37;95.72
70166;SHT30;57541;47.408;18.822;2023-07-02T02:42:05;19.36;95.67
70166;SHT30;57541;47.408;18.822;2023-07-02T02:42:38;19.32;95.50
70166;SHT30;57541;47.408;18.822;2023-07-02T02:43:10;19.33;95.43
70166;SHT30;57541;47.408;18.822;2023-07-02T02:43:42;19.32;95.54
70166;SHT30;57541;47.408;18.822;2023-07-02T02:44:16;19.33;95.45
70166;SHT30;57541;47.408;18.822;2023-07-02T02:44:48;19.33;95.40
70166;SHT30;57541;47.408;18.822;2023-07-02T02:45:19;19.32;95.48
70166;SHT30;57541;47.408;18.822;2023-07-02T02:45:51;19.34;95.49
70166;SHT30;57541;47.408;18.822;2023-07-02T02:46:23;19.36;95.38
70166;SHT30;57541;47.408;18.822;2023-07-02T02:46:55;19.37;95.36
70166;SHT30;57541;47.408;18.822;2023-07-02T02:47:27;19.36;95.40
70166;SHT30;57541;47.408;18.822;2023-07-02T02:47:59;19.34;95.18
70166;SHT30;57541;47.408;18.822;2023-07-02T02:48:30;19.36;95.47
70166;SHT30;57541;47.408;18.822;2023-07-02T02:49:02;19.34;95.68
70166;SHT30;57541;47.408;18.822;2023-07-02T02:49:37;19.33;95.72
70166;SHT30;57541;47.408;18.822;2023-07-02T02:50:12;19.37;95.46
70166;SHT30;57541;47.408;18.822;2023-07-02T02:50:45;19.39;95.52
70166;SHT30;57541;47.408;18.822;2023-07-02T02:51:17;19.39;95.51
70166;SHT30;57541;47.408;18.822;2023-07-02T02:51:49;19.37;95.42
70166;SHT30;57541;47.408;18.822;2023-07-02T02:52:20;19.36;95.32
70166;SHT30;57541;47.408;18.822;2023-07-02T02:52:52;19.34;95.40
70166;SHT30;57541;47.408;18.822;2023-07-02T02:53:24;19.33;95.23
70166;SHT30;57541;47.408;18.822;2023-07-02T02:53:55;19.33;95.45
70166;SHT30;57541;47.408;18.822;2023-07-02T02:54:27;19.33;95.42
70166;SHT30;57541;47.408;18.822;2023-07-02T02:54:59;19.34;95.41
70166;SHT30;57541;47.408;18.822;2023-07-02T02:55:31;19.34;95.35
70166;SHT30;57541;47.408;18.822;2023-07-02T02:56:02;19.39;95.43
70166;SHT30;57541;47.408;18.822;2023-07-02T02:56:34;19.36;95.37
70166;SHT30;57541;47.408;18.822;2023-07-02T02:57:06;19.34;95.45
70166;SHT30;57541;47.408;18.822;2023-07-02T02:57:37;19.30;95.67
70166;SHT30;57541;47.408;18.822;2023-07-02T02:58:09;19.34;95.54
70166;SHT30;57541;47.408;18.822;2023-07-02T02:58:41;19.33;95.44
70166;SHT30;57541;47.408;18.822;2023-07-02T02:59:13;19.34;95.47
70166;SHT30;57541;47.408;18.822;2023-07-02T02:59:44;19.30;95.61
70166;SHT30;57541;47.408;18.822;2023-07-02T03:00:16;19.32;95.66
70166;SHT30;57541;47.408;18.822;2023-07-02T03:00:48;19.34;95.66
70166;SHT30;57541;47.408;18.822;2023-07-02T03:01:21;19.33;95.92
70166;SHT30;57541;47.408;18.822;2023-07-02T03:01:52;19.32;95.97
70166;SHT30;57541;47.408;18.822;2023-07-02T03:02:24;19.33;96.03
70166;SHT30;57541;47.408;18.822;2023-07-02T03:02:57;19.33;96.16
70166;SHT30;57541;47.408;18.822;2023-07-02T03:03:29;19.25;95.99
70166;SHT30;57541;47.408;18.822;2023-07-02T03:04:01;19.23;96.08
70166;SHT30;57541;47.408;18.822;2023-07-02T03:04:34;19.26;96.21
70166;SHT30;57541;47.408;18.822;2023-07-02T03:05:06;19.25;96.19
70166;SHT30;57541;47.408;18.822;2023-07-02T03:05:38;19.29;96.21
70166;SHT30;57541;47.408;18.822;2023-07-02T03:06:10;19.27;96.16
70166;SHT30;57541;47.408;18.822;2023-07-02T03:06:41;19.27;96.11
70166;SHT30;57541;47.408;18.822;2023-07-02T03:07:13;19.26;96.16
70166;SHT30;57541;47.408;18.822;2023-07-02T03:07:45;19.25;96.08
70166;SHT30;57541;47.408;18.822;2023-07-02T03:08:16;19.23;96.01
70166;SHT30;57541;47.408;18.822;2023-07-02T03:08:49;19.22;95.94
70166;SHT30;57541;47.408;18.822;2023-07-02T03:09:20;19.20;96.13
70166;SHT30;57541;47.408;18.822;2023-07-02T03:09:52;19.23;96.10
70166;SHT30;57541;47.408;18.822;2023-07-02T03:10:24;19.23;96.04
70166;SHT30;57541;47.408;18.822;2023-07-02T03:10:55;19.22;96.06
70166;SHT30;57541;47.408;18.822;2023-07-02T03:11:27;19.22;96.09
70166;SHT30;57541;47.408;18.822;2023-07-02T03:11:59;19.23;96.13
70166;SHT30;57541;47.408;18.822;2023-07-02T03:12:31;19.26;95.95
70166;SHT30;57541;47.408;18.822;2023-07-02T03:13:03;19.23;95.85
70166;SHT30;57541;47.408;18.822;2023-07-02T03:13:34;19.25;95.77
70166;SHT30;57541;47.408;18.822;2023-07-02T03:14:06;19.25;95.85
70166;SHT30;57541;47.408;18.822;2023-07-02T03:14:38;19.26;95.80
70166;SHT30;57541;47.408;18.822;2023-07-02T03:15:10;19.23;95.81
70166;SHT30;57541;47.408;18.822;2023-07-02T03:15:41;19.23;95.79
70166;SHT30;57541;47.408;18.822;2023-07-02T03:16:14;19.18;95.81
70166;SHT30;57541;47.408;18.822;2023-07-02T03:16:46;19.23;95.75
70166;SHT30;57541;47.408;18.822;2023-07-02T03:17:20;19.18;95.91
70166;SHT30;57541;47.408;18.822;2023-07-02T03:17:52;19.19;96.00
70166;SHT30;57541;47.408;18.822;2023-07-02T03:18:24;19.18;96.05
70166;SHT30;57541;47.408;18.822;2023-07-02T03:18:56;19.19;96.07
70166;SHT30;57541;47.408;18.822;2023-07-02T03:19:27;19.18;96.20
70166;SHT30;57541;47.408;18.822;2023-07-02T03:19:59;19.19;96.26
70166;SHT30;57541;47.408;18.822;2023-07-02T03:20:31;19.20;96.13
70166;SHT30;57541;47.408;18.822;2023-07-02T03:21:02;19.18;96.00